createdAt,value
2018-02-03T00:01:42.892Z,5.07
2018-02-03T00:04:09.157Z,5.12
2018-02-03T00:06:36.148Z,4.60
2018-02-03T00:09:02.505Z,4.40
2018-02-03T00:11:28.729Z,4.50
2018-02-03T00:13:54.909Z,4.28
2018-02-03T00:16:21.192Z,4.93
2018-02-03T00:18:48.179Z,5.72
2018-02-03T00:21:14.447Z,4.97
2018-02-03T00:23:40.713Z,6.12
2018-02-03T00:26:07.683Z,5.60
2018-02-03T00:28:34.694Z,5.32
2018-02-03T00:31:00.915Z,4.25
2018-02-03T00:33:27.944Z,4.20
2018-02-03T00:35:54.936Z,5.40
2018-02-03T00:38:21.187Z,4.93
2018-02-03T00:40:47.420Z,5.07
2018-02-03T00:43:13.637Z,5.47
2018-02-03T00:45:39.932Z,5.30
2018-02-03T00:48:06.188Z,4.32
2018-02-03T00:50:33.192Z,4.85
2018-02-03T00:52:59.449Z,5.40
2018-02-03T00:55:25.702Z,4.30
2018-02-03T00:57:51.978Z,4.53
2018-02-03T01:00:18.956Z,4.80
2018-02-03T01:02:45.206Z,4.03
2018-02-03T01:05:11.494Z,4.12
2018-02-03T01:07:37.739Z,5.30
2018-02-03T01:10:04.001Z,4.90
2018-02-03T01:12:30.998Z,5.00
2018-02-03T01:14:57.282Z,5.53
2018-02-03T01:17:23.532Z,5.40
2018-02-03T01:19:49.807Z,4.57
2018-02-03T01:22:16.083Z,5.65
2018-02-03T01:24:43.119Z,5.32
2018-02-03T01:27:09.377Z,5.15
2018-02-03T01:29:35.632Z,4.53
2018-02-03T01:32:01.887Z,4.43
2018-02-03T01:34:28.091Z,4.78
2018-02-03T01:36:54.364Z,4.25
2018-02-03T01:39:20.612Z,5.45
2018-02-03T01:41:46.889Z,4.85
2018-02-03T01:44:13.159Z,6.28
2018-02-03T01:46:39.399Z,4.62
2018-02-03T01:49:05.637Z,5.25
2018-02-03T01:51:31.816Z,5.45
2018-02-03T01:53:58.091Z,4.60
2018-02-03T01:56:24.429Z,5.90
2018-02-03T01:58:50.675Z,5.00
2018-02-03T02:01:16.952Z,5.15
2018-02-03T02:03:43.183Z,5.05
2018-02-03T02:06:09.711Z,4.72
2018-02-03T02:08:35.951Z,4.80
2018-02-03T02:11:02.194Z,5.40
2018-02-03T02:13:28.453Z,4.62
2018-02-03T02:15:55.424Z,5.70
2018-02-03T02:18:22.009Z,5.30
2018-02-03T02:20:48.977Z,5.70
2018-02-03T02:23:15.726Z,4.72
2018-02-03T02:25:42.718Z,5.15
2018-02-03T02:28:08.942Z,5.32
2018-02-03T02:30:36.996Z,4.55
2018-02-03T02:33:03.906Z,5.22
2018-02-03T02:35:30.347Z,4.57
2018-02-03T02:37:56.571Z,4.90
2018-02-03T02:40:22.802Z,5.05
2018-02-03T02:42:49.059Z,6.32
2018-02-03T02:45:15.347Z,4.85
2018-02-03T02:47:41.607Z,5.07
2018-02-03T02:50:08.587Z,5.15
2018-02-03T02:52:35.821Z,5.20
2018-02-03T02:55:02.882Z,5.70
2018-02-03T02:57:29.219Z,4.55
2018-02-03T02:59:55.686Z,4.95
2018-02-03T03:02:22.696Z,5.28
2018-02-03T03:04:48.939Z,5.43
2018-02-03T03:07:15.207Z,4.93
2018-02-03T03:09:41.552Z,5.47
2018-02-03T03:12:07.822Z,5.00
2018-02-03T03:14:34.329Z,5.05
2018-02-03T03:17:00.590Z,5.97
2018-02-03T03:19:27.554Z,5.72
2018-02-03T03:21:55.345Z,7.00
2018-02-03T03:24:21.616Z,7.35
2018-02-03T03:26:47.836Z,5.60
2018-02-03T03:29:14.089Z,6.97
2018-02-03T03:31:40.315Z,4.78
2018-02-03T03:34:06.596Z,6.68
2018-02-03T03:36:32.819Z,5.57
2018-02-03T03:38:59.107Z,6.25
2018-02-03T03:41:26.116Z,5.90
2018-02-03T03:43:52.364Z,6.70
2018-02-03T03:46:18.620Z,7.35
2018-02-03T03:48:44.860Z,5.75
2018-02-03T03:51:11.856Z,5.75
2018-02-03T03:53:39.209Z,6.87
2018-02-03T03:56:06.281Z,6.65
2018-02-03T03:58:33.284Z,6.30
2018-02-03T04:00:59.515Z,6.60
2018-02-03T04:03:26.533Z,6.80
2018-02-03T04:05:53.601Z,6.12
2018-02-03T04:08:20.023Z,5.53
2018-02-03T04:10:47.109Z,5.97
2018-02-03T04:13:14.081Z,5.65
2018-02-03T04:15:40.307Z,6.70
2018-02-03T04:18:07.661Z,6.20
2018-02-03T04:20:34.645Z,6.72
2018-02-03T04:23:00.901Z,5.72
2018-02-03T04:25:27.688Z,6.20
2018-02-03T04:27:53.927Z,6.60
2018-02-03T04:30:21.662Z,6.75
2018-02-03T04:32:47.919Z,5.70
2018-02-03T04:35:14.156Z,6.72
2018-02-03T04:37:40.439Z,6.60
2018-02-03T04:40:06.685Z,6.90
2018-02-03T04:42:32.943Z,7.05
2018-02-03T04:44:59.939Z,5.93
2018-02-03T04:47:26.233Z,6.12
2018-02-03T04:49:53.267Z,6.05
2018-02-03T04:52:19.517Z,6.50
2018-02-03T04:54:45.743Z,5.30
2018-02-03T04:57:11.991Z,6.40
2018-02-03T04:59:38.224Z,5.32
2018-02-03T05:02:05.208Z,6.22
2018-02-03T05:04:31.657Z,6.60
2018-02-03T05:06:58.617Z,5.90
2018-02-03T05:09:25.606Z,5.93
2018-02-03T05:11:51.849Z,6.15
2018-02-03T05:14:18.086Z,5.55
2018-02-03T05:16:44.363Z,5.55
2018-02-03T05:19:11.398Z,7.15
2018-02-03T05:21:37.631Z,6.53
2018-02-03T05:24:03.879Z,6.97
2018-02-03T05:26:30.310Z,6.82
2018-02-03T05:28:56.539Z,5.97
2018-02-03T05:31:22.781Z,5.90
2018-02-03T05:33:49.053Z,5.75
2018-02-03T05:36:15.305Z,5.93
2018-02-03T05:38:41.596Z,5.90
2018-02-03T05:41:08.617Z,5.60
2018-02-03T05:43:34.922Z,6.07
2018-02-03T05:46:01.237Z,6.32
2018-02-03T05:48:28.256Z,5.43
2018-02-03T05:50:54.516Z,6.45
2018-02-03T05:53:20.791Z,7.30
2018-02-03T05:55:47.092Z,5.87
2018-02-03T05:58:13.345Z,5.85
2018-02-03T06:00:39.582Z,5.25
2018-02-03T06:03:05.840Z,5.68
2018-02-03T06:05:32.827Z,4.87
2018-02-03T06:07:59.085Z,5.80
2018-02-03T06:10:25.728Z,5.35
2018-02-03T06:12:51.981Z,5.68
2018-02-03T06:15:18.243Z,5.50
2018-02-03T06:17:44.490Z,5.05
2018-02-03T06:20:10.781Z,6.15
2018-02-03T06:22:37.012Z,6.10
2018-02-03T06:25:03.282Z,5.90
2018-02-03T06:27:29.515Z,5.53
2018-02-03T06:29:55.822Z,6.97
2018-02-03T06:32:23.187Z,6.22
2018-02-03T06:34:49.618Z,7.37
2018-02-03T06:37:16.617Z,7.28
2018-02-03T06:39:42.860Z,7.75
2018-02-03T06:42:09.106Z,5.95
2018-02-03T06:44:35.373Z,7.78
2018-02-03T06:47:01.642Z,8.27
2018-02-03T06:49:28.637Z,8.40
2018-02-03T06:51:54.884Z,8.90
2018-02-03T06:54:21.159Z,9.30
2018-02-03T06:56:47.430Z,9.40
2018-02-03T06:59:14.415Z,9.68
2018-02-03T07:01:40.679Z,10.30
2018-02-03T07:04:06.941Z,9.88
2018-02-03T07:06:33.217Z,11.35
2018-02-03T07:09:00.198Z,9.98
2018-02-03T07:11:26.459Z,9.48
2018-02-03T07:13:52.703Z,10.35
2018-02-03T07:16:18.972Z,11.65
2018-02-03T07:18:45.317Z,11.43
2018-02-03T07:21:11.564Z,11.30
2018-02-03T07:23:37.878Z,10.90
2018-02-03T07:26:04.141Z,10.70
2018-02-03T07:28:30.390Z,11.98
2018-02-03T07:30:56.713Z,13.65
2018-02-03T07:33:22.963Z,12.68
2018-02-03T07:35:49.255Z,16.70
2018-02-03T07:38:15.486Z,15.25
2018-02-03T07:40:41.751Z,14.95
2018-02-03T07:43:08.035Z,14.52
2018-02-03T07:45:34.274Z,12.30
2018-02-03T07:48:00.582Z,13.50
2018-02-03T07:50:26.862Z,11.12
2018-02-03T07:52:53.115Z,10.93
2018-02-03T07:55:19.397Z,12.60
2018-02-03T07:57:45.633Z,12.15
2018-02-03T08:00:11.915Z,11.00
2018-02-03T08:02:38.151Z,10.15
2018-02-03T08:05:04.407Z,10.80
2018-02-03T08:07:30.655Z,10.15
2018-02-03T08:09:57.672Z,9.00
2018-02-03T08:12:23.955Z,8.65
2018-02-03T08:14:50.964Z,8.77
2018-02-03T08:17:17.194Z,9.55
2018-02-03T08:19:43.462Z,7.85
2018-02-03T08:22:09.712Z,8.55
2018-02-03T08:24:36.010Z,7.70
2018-02-03T08:27:02.250Z,7.80
2018-02-03T08:29:28.467Z,7.53
2018-02-03T08:31:55.461Z,8.38
2018-02-03T08:34:21.702Z,8.13
2018-02-03T08:36:47.992Z,7.53
2018-02-03T08:39:14.216Z,7.85
2018-02-03T08:41:40.455Z,7.53
2018-02-03T08:44:06.741Z,7.43
2018-02-03T08:46:32.968Z,7.90
2018-02-03T08:48:59.980Z,7.53
2018-02-03T08:51:26.221Z,9.30
2018-02-03T08:53:53.204Z,7.30
2018-02-03T08:56:19.483Z,7.37
2018-02-03T08:58:45.730Z,7.55
2018-02-03T09:01:12.029Z,6.68
2018-02-03T09:03:38.273Z,7.18
2018-02-03T09:06:04.512Z,7.43
2018-02-03T09:08:30.775Z,7.93
2018-02-03T09:10:57.839Z,6.45
2018-02-03T09:13:24.827Z,7.62
2018-02-03T09:15:51.085Z,7.68
2018-02-03T09:18:17.362Z,8.68
2018-02-03T09:20:44.382Z,7.20
2018-02-03T09:23:10.661Z,7.50
2018-02-03T09:25:37.663Z,7.25
2018-02-03T09:28:03.929Z,8.05
2018-02-03T09:30:30.233Z,6.95
2018-02-03T09:32:56.509Z,8.40
2018-02-03T09:35:22.784Z,8.80
2018-02-03T09:37:49.044Z,8.18
2018-02-03T09:40:16.054Z,9.00
2018-02-03T09:42:42.289Z,8.15
2018-02-03T09:45:08.542Z,6.65
2018-02-03T09:47:34.820Z,9.60
2018-02-03T09:50:01.797Z,8.40
2018-02-03T09:52:28.034Z,8.90
2018-02-03T09:54:54.309Z,8.38
2018-02-03T09:57:20.578Z,8.75
2018-02-03T09:59:46.882Z,8.18
2018-02-03T10:02:13.133Z,9.88
2018-02-03T10:04:39.391Z,8.40
2018-02-03T10:07:05.642Z,7.95
2018-02-03T10:09:38.839Z,8.20
2018-02-03T10:12:05.100Z,8.15
2018-02-03T10:14:32.088Z,7.82
2018-02-03T10:16:58.367Z,9.50
2018-02-03T10:19:24.623Z,8.63
2018-02-03T10:21:50.927Z,8.63
2018-02-03T10:24:17.162Z,8.20
2018-02-03T10:26:43.420Z,8.38
2018-02-03T10:29:09.749Z,8.30
2018-02-03T10:31:35.989Z,8.35
2018-02-03T10:34:02.240Z,8.18
2018-02-03T10:36:28.501Z,11.07
2018-02-03T10:38:54.754Z,10.13
2018-02-03T10:41:20.974Z,10.32
2018-02-03T10:43:47.238Z,13.07
2018-02-03T10:46:13.492Z,11.57
2018-02-03T10:48:39.755Z,14.43
2018-02-03T10:51:06.016Z,12.70
2018-02-03T10:53:32.293Z,12.27
2018-02-03T10:55:58.556Z,13.43
2018-02-03T10:58:24.806Z,11.77
2018-02-03T11:00:51.820Z,9.75
2018-02-03T11:03:18.091Z,11.00
2018-02-03T11:05:45.097Z,10.45
2018-02-03T11:08:11.388Z,10.10
2018-02-03T11:10:38.368Z,10.50
2018-02-03T11:13:05.374Z,11.20
2018-02-03T11:15:31.678Z,10.82
2018-02-03T11:17:57.940Z,11.88
2018-02-03T11:20:24.961Z,11.43
2018-02-03T11:22:51.204Z,11.60
2018-02-03T11:25:17.442Z,9.75
2018-02-03T11:27:44.449Z,11.23
2018-02-03T11:30:10.718Z,10.60
2018-02-03T11:32:37.028Z,11.00
2018-02-03T11:35:03.274Z,12.50
2018-02-03T11:37:30.310Z,10.20
2018-02-03T11:39:56.595Z,10.85
2018-02-03T11:42:22.850Z,11.32
2018-02-03T11:44:49.129Z,10.27
2018-02-03T11:47:15.365Z,10.35
2018-02-03T11:49:41.588Z,11.85
2018-02-03T11:52:08.581Z,10.48
2018-02-03T11:54:34.833Z,10.73
2018-02-03T11:57:01.106Z,10.57
2018-02-03T11:59:27.360Z,11.55
2018-02-03T12:01:54.325Z,8.85
2018-02-03T12:04:21.360Z,10.57
2018-02-03T12:06:47.616Z,11.80
2018-02-03T12:09:13.858Z,10.57
2018-02-03T12:11:40.140Z,11.05
2018-02-03T12:14:06.405Z,11.52
2018-02-03T12:16:32.714Z,11.52
2018-02-03T12:18:58.982Z,11.80
2018-02-03T12:21:25.303Z,12.68
2018-02-03T12:23:51.560Z,12.75
2018-02-03T12:26:17.826Z,10.88
2018-02-03T12:28:44.107Z,12.73
2018-02-03T12:31:11.166Z,12.00
2018-02-03T12:33:38.215Z,10.80
2018-02-03T12:36:05.221Z,11.45
2018-02-03T12:38:31.532Z,11.20
2018-02-03T12:40:57.840Z,11.18
2018-02-03T12:43:24.139Z,13.25
2018-02-03T12:45:50.475Z,10.70
2018-02-03T12:48:16.781Z,12.02
2018-02-03T12:50:43.095Z,11.15
2018-02-03T12:53:09.382Z,11.63
2018-02-03T12:55:36.430Z,13.65
2018-02-03T12:58:03.511Z,12.45
2018-02-03T13:00:29.794Z,12.30
2018-02-03T13:02:56.073Z,14.20
2018-02-03T13:05:23.078Z,12.55
2018-02-03T13:07:49.698Z,12.00
2018-02-03T13:10:16.718Z,12.82
2018-02-03T13:12:43.039Z,12.35
2018-02-03T13:15:09.334Z,12.68
2018-02-03T13:17:36.341Z,16.10
2018-02-03T13:20:02.978Z,15.38
2018-02-03T13:22:29.259Z,13.27
2018-02-03T13:24:55.572Z,11.80
2018-02-03T13:27:21.877Z,12.55
2018-02-03T13:29:48.135Z,13.90
2018-02-03T13:32:14.418Z,11.80
2018-02-03T13:34:40.705Z,12.15
2018-02-03T13:37:07.015Z,13.25
2018-02-03T13:39:33.365Z,12.68
2018-02-03T13:42:00.475Z,14.32
2018-02-03T13:44:26.789Z,13.13
2018-02-03T13:46:53.043Z,13.60
2018-02-03T13:49:19.338Z,12.55
2018-02-03T13:51:45.650Z,12.63
2018-02-03T13:54:12.293Z,14.73
2018-02-03T13:56:39.471Z,14.95
2018-02-03T13:59:06.466Z,14.55
2018-02-03T14:01:33.508Z,16.37
2018-02-03T14:03:59.793Z,15.68
2018-02-03T14:06:26.086Z,12.73
2018-02-03T14:08:52.382Z,13.90
2018-02-03T14:11:18.679Z,11.80
2018-02-03T14:13:45.026Z,13.30
2018-02-03T14:16:12.079Z,11.98
2018-02-03T14:18:38.385Z,11.30
2018-02-03T14:21:11.663Z,11.77
2018-02-03T14:23:37.975Z,11.63
2018-02-03T14:26:10.225Z,10.98
2018-02-03T14:28:36.505Z,10.35
2018-02-03T14:31:03.557Z,11.88
2018-02-03T14:33:30.577Z,10.73
2018-02-03T14:35:56.885Z,12.35
2018-02-03T14:38:23.136Z,11.88
2018-02-03T14:40:49.398Z,13.05
2018-02-03T14:43:15.756Z,13.27
2018-02-03T14:45:42.067Z,11.05
2018-02-03T14:48:08.719Z,11.40
2018-02-03T14:50:34.976Z,10.27
2018-02-03T14:53:01.225Z,11.50
2018-02-03T14:55:27.543Z,11.65
2018-02-03T14:57:53.830Z,11.88
2018-02-03T15:00:20.881Z,11.82
2018-02-03T15:02:47.167Z,11.00
2018-02-03T15:05:14.164Z,12.02
2018-02-03T15:07:40.469Z,11.12
2018-02-03T15:10:06.780Z,12.35
2018-02-03T15:12:33.849Z,12.02
2018-02-03T15:15:00.875Z,10.95
2018-02-03T15:17:27.179Z,11.23
2018-02-03T15:19:53.538Z,11.48
2018-02-03T15:22:19.834Z,10.13
2018-02-03T15:24:46.898Z,11.30
2018-02-03T15:27:13.127Z,11.75
2018-02-03T15:29:39.496Z,11.55
2018-02-03T15:32:05.860Z,10.32
2018-02-03T15:34:32.186Z,11.45
2018-02-03T15:36:58.514Z,10.55
2018-02-03T15:39:24.807Z,10.52
2018-02-03T15:41:51.206Z,9.95
2018-02-03T15:44:17.617Z,11.27
2018-02-03T15:46:44.635Z,11.45
2018-02-03T15:49:10.992Z,11.98
2018-02-03T15:51:37.305Z,11.70
2018-02-03T15:54:03.627Z,12.43
2018-02-03T15:56:30.729Z,11.07
2018-02-03T15:58:57.024Z,12.85
2018-02-03T16:01:23.291Z,12.90
2018-02-03T16:03:49.576Z,15.02
2018-02-03T16:06:15.820Z,16.37
2018-02-03T16:08:42.096Z,17.10
2018-02-03T16:11:08.380Z,15.10
2018-02-03T16:13:34.658Z,15.98
2018-02-03T16:16:00.993Z,15.05
2018-02-03T16:18:27.355Z,14.40
2018-02-03T16:20:53.683Z,15.05
2018-02-03T16:23:20.048Z,12.77
2018-02-03T16:25:46.322Z,13.25
2018-02-03T16:28:12.645Z,12.70
2018-02-03T16:30:38.958Z,14.15
2018-02-03T16:33:05.314Z,17.52
2018-02-03T16:35:32.359Z,16.62
2018-02-03T16:37:58.682Z,15.77
2018-02-03T16:40:24.986Z,28.90
2018-02-03T16:42:51.260Z,22.33
2018-02-03T16:45:17.603Z,16.90
2018-02-03T16:47:43.886Z,12.95
2018-02-03T16:50:10.961Z,13.15
2018-02-03T16:52:37.337Z,12.63
2018-02-03T16:55:03.617Z,12.10
2018-02-03T16:57:29.990Z,11.98
2018-02-03T16:59:56.305Z,10.40
2018-02-03T17:02:22.621Z,9.52
2018-02-03T17:04:49.002Z,10.07
2018-02-03T17:07:16.064Z,10.27
2018-02-03T17:09:43.100Z,13.55
2018-02-03T17:12:09.396Z,10.73
2018-02-03T17:14:35.725Z,10.57
2018-02-03T17:17:02.056Z,10.20
2018-02-03T17:19:29.103Z,10.13
2018-02-03T17:21:55.408Z,11.90
2018-02-03T17:24:21.676Z,10.68
2018-02-03T17:26:47.973Z,9.65
2018-02-03T17:29:14.273Z,9.88
2018-02-03T17:31:41.306Z,10.73
2018-02-03T17:34:07.596Z,11.52
2018-02-03T17:36:39.992Z,10.27
2018-02-03T17:39:10.211Z,9.10
2018-02-03T17:41:37.249Z,9.45
2018-02-03T17:44:03.536Z,9.05
2018-02-03T17:46:35.879Z,9.80
2018-02-03T17:49:03.247Z,11.30
2018-02-03T17:51:30.308Z,9.75
2018-02-03T17:53:57.340Z,10.40
2018-02-03T17:56:29.680Z,10.95
2018-02-03T17:58:55.951Z,12.20
2018-02-03T18:01:22.210Z,16.10
2018-02-03T18:03:48.500Z,14.90
2018-02-03T18:06:14.846Z,11.35
2018-02-03T18:08:41.139Z,11.95
2018-02-03T18:11:07.434Z,11.52
2018-02-03T18:13:33.729Z,12.57
2018-02-03T18:16:00.054Z,13.13
2018-02-03T18:18:26.361Z,13.07
2018-02-03T18:20:52.723Z,14.32
2018-02-03T18:23:19.031Z,13.52
2018-02-03T18:25:45.347Z,15.73
2018-02-03T18:28:11.658Z,15.20
2018-02-03T18:30:38.010Z,15.65
2018-02-03T18:33:04.277Z,16.10
2018-02-03T18:35:30.575Z,17.73
2018-02-03T18:37:57.171Z,16.45
2018-02-03T18:40:24.239Z,16.92
2018-02-03T18:42:51.246Z,16.52
2018-02-03T18:45:29.747Z,15.80
2018-02-03T18:47:56.037Z,17.73
2018-02-03T18:50:22.383Z,15.20
2018-02-03T18:52:48.679Z,14.27
2018-02-03T18:55:15.087Z,14.45
2018-02-03T18:57:41.438Z,12.90
2018-02-03T19:00:07.755Z,12.77
2018-02-03T19:02:34.060Z,15.88
2018-02-03T19:05:00.413Z,18.65
2018-02-03T19:07:26.773Z,16.48
2018-02-03T19:09:53.048Z,16.95
2018-02-03T19:12:20.100Z,17.85
2018-02-03T19:14:46.415Z,14.27
2018-02-03T19:17:12.747Z,13.55
2018-02-03T19:19:39.113Z,15.73
2018-02-03T19:22:05.400Z,15.10
2018-02-03T19:24:31.716Z,15.60
2018-02-03T19:26:58.043Z,15.25
2018-02-03T19:29:24.349Z,14.98
2018-02-03T19:31:50.643Z,13.18
2018-02-03T19:34:17.706Z,13.55
2018-02-03T19:36:44.830Z,13.80
2018-02-03T19:39:11.847Z,13.48
2018-02-03T19:41:38.258Z,15.10
2018-02-03T19:44:04.649Z,12.63
2018-02-03T19:46:30.965Z,16.40
2018-02-03T19:48:58.042Z,13.70
2018-02-03T19:51:24.374Z,13.70
2018-02-03T19:53:51.498Z,12.60
2018-02-03T19:56:17.859Z,13.40
2018-02-03T19:58:44.980Z,11.18
2018-02-03T20:01:11.376Z,11.85
2018-02-03T20:03:37.767Z,10.10
2018-02-03T20:06:04.197Z,8.30
2018-02-03T20:08:30.573Z,9.40
2018-02-03T20:10:56.940Z,9.15
2018-02-03T20:13:24.030Z,9.18
2018-02-03T20:15:50.683Z,8.35
2018-02-03T20:18:17.004Z,8.38
2018-02-03T20:20:43.356Z,8.52
2018-02-03T20:23:09.684Z,8.45
2018-02-03T20:25:37.797Z,8.32
2018-02-03T20:28:04.159Z,9.20
2018-02-03T20:30:30.480Z,8.05
2018-02-03T20:32:56.930Z,8.57
2018-02-03T20:35:23.320Z,8.80
2018-02-03T20:37:49.681Z,8.15
2018-02-03T20:40:16.068Z,8.45
2018-02-03T20:42:42.365Z,9.05
2018-02-03T20:45:08.758Z,8.05
2018-02-03T20:47:35.130Z,7.47
2018-02-03T20:50:01.506Z,7.80
2018-02-03T20:52:28.629Z,10.82
2018-02-03T20:54:55.003Z,7.93
2018-02-03T20:57:21.360Z,7.57
2018-02-03T20:59:48.445Z,10.00
2018-02-03T21:02:14.766Z,8.93
2018-02-03T21:04:41.854Z,7.60
2018-02-03T21:07:08.196Z,6.35
2018-02-03T21:09:34.533Z,6.05
2018-02-03T21:12:00.888Z,7.78
2018-02-03T21:14:27.213Z,6.12
2018-02-03T21:16:53.564Z,6.95
2018-02-03T21:19:19.865Z,7.50
2018-02-03T21:21:46.202Z,7.40
2018-02-03T21:24:12.520Z,6.32
2018-02-03T21:26:38.837Z,6.20
2018-02-03T21:29:05.164Z,7.03
2018-02-03T21:31:31.439Z,6.22
2018-02-03T21:33:57.770Z,7.15
2018-02-03T21:36:24.139Z,6.93
2018-02-03T21:38:50.775Z,6.90
2018-02-03T21:41:17.097Z,7.12
2018-02-03T21:43:43.435Z,7.07
2018-02-03T21:46:09.781Z,6.93
2018-02-03T21:48:36.087Z,7.55
2018-02-03T21:51:02.438Z,6.65
2018-02-03T21:53:29.478Z,7.72
2018-02-03T21:55:55.826Z,7.75
2018-02-03T21:58:22.140Z,7.35
2018-02-03T22:00:48.446Z,7.43
2018-02-03T22:03:14.749Z,8.18
2018-02-03T22:05:41.054Z,7.30
2018-02-03T22:08:07.364Z,8.18
2018-02-03T22:10:34.405Z,7.95
2018-02-03T22:13:01.494Z,8.27
2018-02-03T22:15:27.792Z,8.30
2018-02-03T22:17:54.052Z,8.88
2018-02-03T22:20:21.106Z,7.57
2018-02-03T22:22:47.402Z,8.88
2018-02-03T22:25:13.678Z,8.70
2018-02-03T22:27:39.970Z,8.15
2018-02-03T22:30:06.286Z,8.40
2018-02-03T22:32:33.276Z,8.52
2018-02-03T22:34:59.547Z,11.38
2018-02-03T22:37:26.560Z,9.18
2018-02-03T22:39:52.815Z,10.70
2018-02-03T22:42:19.099Z,9.90
2018-02-03T22:44:45.378Z,10.07
2018-02-03T22:47:11.675Z,9.95
2018-02-03T22:49:37.937Z,9.10
2018-02-03T22:52:04.192Z,8.77
2018-02-03T22:54:31.214Z,10.88
2018-02-03T22:56:57.497Z,11.12
2018-02-03T22:59:24.535Z,11.05
2018-02-03T23:01:50.830Z,10.88
2018-02-03T23:04:17.111Z,12.23
2018-02-03T23:06:43.330Z,12.00
2018-02-03T23:09:09.582Z,12.20
2018-02-03T23:11:35.850Z,10.50
2018-02-03T23:14:02.846Z,12.37
2018-02-03T23:16:29.114Z,10.85
2018-02-03T23:18:55.335Z,11.75
2018-02-03T23:21:21.611Z,12.35
2018-02-03T23:23:47.870Z,11.00
2018-02-03T23:26:14.851Z,10.38
2018-02-03T23:28:41.109Z,11.57
2018-02-03T23:31:07.359Z,11.43
2018-02-03T23:33:33.640Z,11.52
2018-02-03T23:35:59.894Z,11.23
2018-02-03T23:38:26.874Z,11.73
2018-02-03T23:40:53.144Z,8.60
2018-02-03T23:43:19.404Z,9.75
2018-02-03T23:45:45.683Z,9.98
2018-02-03T23:48:12.677Z,8.98
2018-02-03T23:50:39.011Z,9.52
2018-02-03T23:53:05.977Z,9.15
2018-02-03T23:55:32.222Z,8.93
2018-02-03T23:57:58.634Z,10.00
